createdAt,value
2023-05-12T00:00:59.793Z,12.70
2023-05-12T00:03:28.446Z,12.70
2023-05-12T00:05:57.063Z,12.80
2023-05-12T00:08:25.487Z,12.80
2023-05-12T00:10:54.061Z,12.90
2023-05-12T00:13:24.252Z,12.90
2023-05-12T00:15:55.656Z,12.80
2023-05-12T00:18:24.258Z,12.80
2023-05-12T00:20:54.241Z,12.70
2023-05-12T00:23:23.070Z,12.70
2023-05-12T00:25:51.852Z,12.60
2023-05-12T00:28:20.549Z,12.50
2023-05-12T00:30:49.133Z,12.60
2023-05-12T00:33:19.299Z,12.50
2023-05-12T00:35:47.870Z,12.50
2023-05-12T00:38:16.385Z,12.50
2023-05-12T00:40:44.960Z,12.60
2023-05-12T00:43:13.462Z,12.60
2023-05-12T00:45:42.197Z,12.60
2023-05-12T00:48:10.721Z,12.70
2023-05-12T00:50:40.848Z,12.70
2023-05-12T00:53:10.964Z,12.80
2023-05-12T00:55:39.552Z,12.80
2023-05-12T00:58:08.030Z,12.80
2023-05-12T01:00:36.880Z,12.80
2023-05-12T01:03:06.227Z,12.90
2023-05-12T01:05:43.276Z,12.90
2023-05-12T01:08:12.996Z,12.90
2023-05-12T01:10:46.200Z,12.90
2023-05-12T01:13:14.854Z,12.90
2023-05-12T01:15:48.563Z,13.00
2023-05-12T01:18:18.846Z,13.00
2023-05-12T01:20:49.470Z,13.00
2023-05-12T01:23:21.067Z,12.90
2023-05-12T01:25:51.600Z,12.90
2023-05-12T01:28:22.794Z,12.80
2023-05-12T01:30:51.828Z,12.90
2023-05-12T01:33:20.277Z,12.90
2023-05-12T01:35:48.728Z,12.90
2023-05-12T01:38:17.245Z,12.90
2023-05-12T01:40:45.755Z,12.90
2023-05-12T01:43:14.233Z,13.00
2023-05-12T01:45:44.243Z,13.00
2023-05-12T01:48:12.811Z,12.90
2023-05-12T01:50:42.518Z,12.90
2023-05-12T01:53:11.651Z,12.90
2023-05-12T01:55:40.269Z,12.90
2023-05-12T01:58:09.160Z,12.90
2023-05-12T02:00:37.858Z,12.90
2023-05-12T02:03:07.776Z,13.00
2023-05-12T02:05:36.632Z,13.00
2023-05-12T02:08:05.575Z,12.90
2023-05-12T02:10:34.039Z,13.00
2023-05-12T02:13:02.440Z,13.10
2023-05-12T02:15:31.150Z,13.10
2023-05-12T02:17:59.741Z,13.00
2023-05-12T02:20:29.876Z,13.10
2023-05-12T02:22:58.382Z,13.00
2023-05-12T02:25:26.852Z,13.10
2023-05-12T02:27:55.398Z,13.20
2023-05-12T02:30:23.978Z,13.10
2023-05-12T02:32:52.477Z,13.10
2023-05-12T02:35:21.575Z,13.00
2023-05-12T02:37:51.459Z,13.10
2023-05-12T02:40:20.161Z,13.10
2023-05-12T02:42:48.749Z,13.10
2023-05-12T02:45:17.394Z,13.10
2023-05-12T02:47:47.014Z,13.20
2023-05-12T02:50:16.352Z,13.20
2023-05-12T02:52:44.842Z,13.20
2023-05-12T02:55:15.046Z,13.20
2023-05-12T02:57:44.697Z,13.30
2023-05-12T03:00:14.294Z,13.20
2023-05-12T03:02:44.624Z,13.20
2023-05-12T03:05:13.147Z,13.20
2023-05-12T03:07:42.076Z,13.20
2023-05-12T03:10:11.473Z,13.20
2023-05-12T03:12:42.127Z,13.20
2023-05-12T03:15:11.428Z,13.30
2023-05-12T03:17:39.985Z,13.30
2023-05-12T03:20:09.358Z,13.40
2023-05-12T03:22:37.969Z,13.30
2023-05-12T03:25:07.482Z,13.30
2023-05-12T03:27:36.166Z,13.30
2023-05-12T03:30:07.098Z,13.30
2023-05-12T03:32:35.713Z,13.40
2023-05-12T03:35:04.312Z,13.40
2023-05-12T03:37:32.873Z,13.50
2023-05-12T03:40:01.314Z,13.50
2023-05-12T03:42:30.018Z,13.50
2023-05-12T03:44:58.526Z,13.50
2023-05-12T03:47:29.337Z,13.60
2023-05-12T03:49:58.794Z,13.60
2023-05-12T03:52:27.380Z,13.60
2023-05-12T03:54:55.883Z,13.60
2023-05-12T03:57:24.386Z,13.70
2023-05-12T03:59:52.898Z,13.70
2023-05-12T04:02:21.424Z,13.70
2023-05-12T04:04:51.563Z,13.70
2023-05-12T04:07:20.544Z,13.70
2023-05-12T04:09:49.646Z,13.70
2023-05-12T04:12:18.184Z,13.70
2023-05-12T04:14:46.697Z,13.70
2023-05-12T04:17:15.400Z,13.80
2023-05-12T04:19:44.146Z,13.70
2023-05-12T04:22:14.017Z,13.70
2023-05-12T04:24:42.587Z,13.80
2023-05-12T04:27:11.105Z,13.80
2023-05-12T04:29:39.636Z,13.80
2023-05-12T04:32:09.214Z,13.90
2023-05-12T04:34:37.830Z,13.90
2023-05-12T04:37:06.760Z,13.90
2023-05-12T04:39:36.665Z,13.90
2023-05-12T04:42:06.049Z,13.90
2023-05-12T04:44:34.481Z,13.90
2023-05-12T04:47:02.905Z,13.90
2023-05-12T04:49:31.469Z,14.00
2023-05-12T04:51:59.920Z,14.00
2023-05-12T04:54:28.458Z,14.10
2023-05-12T04:56:58.351Z,14.20
2023-05-12T04:59:26.804Z,14.20
2023-05-12T05:01:55.426Z,14.20
2023-05-12T05:04:24.068Z,14.20
2023-05-12T05:06:52.548Z,14.20
2023-05-12T05:09:21.034Z,14.30
2023-05-12T05:11:50.008Z,14.30
2023-05-12T05:14:19.938Z,14.40
2023-05-12T05:16:48.567Z,14.40
2023-05-12T05:19:23.328Z,14.40
2023-05-12T05:21:58.671Z,14.40
2023-05-12T05:24:27.159Z,14.50
2023-05-12T05:26:55.558Z,14.60
2023-05-12T05:29:26.706Z,14.60
2023-05-12T05:31:55.285Z,14.70
2023-05-12T05:34:23.843Z,14.70
2023-05-12T05:36:52.424Z,14.80
2023-05-12T05:39:20.914Z,14.80
2023-05-12T05:41:49.433Z,14.90
2023-05-12T05:44:17.938Z,15.00
2023-05-12T05:46:47.802Z,15.00
2023-05-12T05:49:16.300Z,15.10
2023-05-12T05:51:44.834Z,15.10
2023-05-12T05:54:13.405Z,15.20
2023-05-12T05:56:42.387Z,15.30
2023-05-12T05:59:11.221Z,15.30
2023-05-12T06:01:39.734Z,15.30
2023-05-12T06:04:09.657Z,15.40
2023-05-12T06:06:38.212Z,15.40
2023-05-12T06:09:07.321Z,15.50
2023-05-12T06:11:35.844Z,15.50
2023-05-12T06:14:04.387Z,15.60
2023-05-12T06:16:32.988Z,15.80
2023-05-12T06:19:01.585Z,15.80
2023-05-12T06:21:32.339Z,15.90
2023-05-12T06:24:00.872Z,16.10
2023-05-12T06:26:29.392Z,16.20
2023-05-12T06:28:57.907Z,16.30
2023-05-12T06:31:26.522Z,16.40
2023-05-12T06:33:55.007Z,16.40
2023-05-12T06:36:23.535Z,16.40
2023-05-12T06:38:54.078Z,16.40
2023-05-12T06:41:25.195Z,16.40
2023-05-12T06:43:53.826Z,16.50
2023-05-12T06:46:22.412Z,16.50
2023-05-12T06:48:50.909Z,16.50
2023-05-12T06:51:19.409Z,16.60
2023-05-12T06:53:47.970Z,16.70
2023-05-12T06:56:17.928Z,16.80
2023-05-12T06:58:46.512Z,17.00
2023-05-12T07:01:15.038Z,17.20
2023-05-12T07:03:44.043Z,17.40
2023-05-12T07:06:12.672Z,17.50
2023-05-12T07:08:41.466Z,17.50
2023-05-12T07:11:09.988Z,17.60
2023-05-12T07:13:39.935Z,17.60
2023-05-12T07:16:08.733Z,17.60
2023-05-12T07:18:37.485Z,17.70
2023-05-12T07:21:06.246Z,17.90
2023-05-12T07:23:35.074Z,18.10
2023-05-12T07:26:04.117Z,18.40
2023-05-12T07:28:36.174Z,18.40
2023-05-12T07:31:07.351Z,18.50
2023-05-12T07:33:36.304Z,18.70
2023-05-12T07:36:06.233Z,18.80
2023-05-12T07:38:34.747Z,19.10
2023-05-12T07:41:03.746Z,19.20
2023-05-12T07:43:32.214Z,19.40
2023-05-12T07:46:01.323Z,19.60
2023-05-12T07:48:31.315Z,19.60
2023-05-12T07:50:59.828Z,19.70
2023-05-12T07:53:28.339Z,19.70
2023-05-12T07:55:56.938Z,19.80
2023-05-12T07:58:25.539Z,19.80
2023-05-12T08:00:54.687Z,19.90
2023-05-12T08:03:23.313Z,20.10
2023-05-12T08:05:53.213Z,20.40
2023-05-12T08:08:22.301Z,20.70
2023-05-12T08:10:50.731Z,20.90
2023-05-12T08:13:19.217Z,21.30
2023-05-12T08:15:48.484Z,21.80
2023-05-12T08:18:17.035Z,22.10
2023-05-12T08:20:45.610Z,22.60
2023-05-12T08:23:15.537Z,23.30
2023-05-12T08:25:44.652Z,23.60
2023-05-12T08:28:14.007Z,23.40
2023-05-12T08:30:42.778Z,23.70
2023-05-12T08:33:11.373Z,24.30
2023-05-12T08:35:40.086Z,24.20
2023-05-12T08:38:08.915Z,24.00
2023-05-12T08:40:48.479Z,23.90
2023-05-12T08:43:26.238Z,23.80
2023-05-12T08:45:57.894Z,23.60
2023-05-12T08:48:28.600Z,23.80
2023-05-12T08:50:58.191Z,23.80
2023-05-12T08:53:29.149Z,23.80
2023-05-12T08:58:50.662Z,23.60
2023-05-12T09:01:19.293Z,23.90
2023-05-12T09:03:48.074Z,24.20
2023-05-12T09:06:17.098Z,24.70
2023-05-12T09:08:46.550Z,25.10
2023-05-12T09:11:18.785Z,25.40
2023-05-12T09:13:53.906Z,25.80
2023-05-12T09:16:26.497Z,26.10
2023-05-12T09:18:56.987Z,27.30
2023-05-12T09:21:26.811Z,29.20
2023-05-12T09:23:57.475Z,30.00
2023-05-12T09:26:28.183Z,30.60
2023-05-12T09:29:05.038Z,31.00
2023-05-12T09:31:33.758Z,31.50
2023-05-12T09:34:03.113Z,31.30
2023-05-12T09:36:31.714Z,32.40
2023-05-12T09:39:04.625Z,33.30
2023-05-12T09:41:37.871Z,33.00
2023-05-12T09:44:06.787Z,33.70
2023-05-12T09:46:35.431Z,34.40
2023-05-12T09:49:04.040Z,34.50
2023-05-12T09:51:32.568Z,34.60
2023-05-12T09:54:01.118Z,34.30
2023-05-12T09:56:31.636Z,34.30
2023-05-12T09:59:05.485Z,35.20
2023-05-12T10:01:34.979Z,35.50
2023-05-12T10:04:05.944Z,35.60
2023-05-12T10:06:39.096Z,35.30
2023-05-12T10:09:11.965Z,35.20
2023-05-12T10:11:41.667Z,35.20
2023-05-12T10:14:13.566Z,35.60
2023-05-12T10:16:42.974Z,35.50
2023-05-12T10:19:12.447Z,35.80
2023-05-12T10:21:42.545Z,35.30
2023-05-12T10:24:11.281Z,35.00
2023-05-12T10:26:40.366Z,35.10
2023-05-12T10:29:09.563Z,35.50
2023-05-12T10:31:39.772Z,35.70
2023-05-12T10:34:08.362Z,35.40
2023-05-12T10:36:47.237Z,35.20
2023-05-12T10:39:16.834Z,35.60
2023-05-12T10:41:45.624Z,36.30
2023-05-12T10:44:14.215Z,37.50
2023-05-12T10:46:45.496Z,37.70
2023-05-12T10:49:15.801Z,38.00
2023-05-12T10:51:51.008Z,38.90
2023-05-12T10:54:26.158Z,37.70
2023-05-12T10:56:59.572Z,34.80
2023-05-12T10:59:28.852Z,32.70
2023-05-12T11:02:02.356Z,30.90
2023-05-12T11:04:41.934Z,30.50
2023-05-12T11:07:12.114Z,31.10
2023-05-12T11:09:55.479Z,31.60
2023-05-12T11:12:27.815Z,30.70
2023-05-12T11:14:56.700Z,29.60
2023-05-12T11:17:26.706Z,28.90
2023-05-12T11:19:55.706Z,28.70
2023-05-12T11:22:25.884Z,28.50
2023-05-12T11:24:54.569Z,28.00
2023-05-12T11:27:24.169Z,27.50
2023-05-12T11:30:00.265Z,27.70
2023-05-12T11:32:31.520Z,29.30
2023-05-12T11:35:10.710Z,29.20
2023-05-12T11:37:40.536Z,28.60
2023-05-12T11:40:19.877Z,27.70
2023-05-12T11:42:51.728Z,27.00
2023-05-12T11:45:28.952Z,27.90
2023-05-12T11:48:10.201Z,29.80
2023-05-12T11:50:40.816Z,31.50
2023-05-12T11:53:12.579Z,32.60
2023-05-12T11:55:49.744Z,31.50
2023-05-12T11:58:22.136Z,30.50
2023-05-12T12:00:50.777Z,29.50
2023-05-12T12:03:21.386Z,28.30
2023-05-12T12:06:00.327Z,28.10
2023-05-12T12:08:29.104Z,29.60
2023-05-12T12:10:57.804Z,31.50
2023-05-12T12:13:29.868Z,32.50
2023-05-12T12:15:58.398Z,32.80
2023-05-12T12:18:28.423Z,33.50
2023-05-12T12:20:56.910Z,33.40
2023-05-12T12:23:25.383Z,33.40
2023-05-12T12:25:53.881Z,33.80
2023-05-12T12:28:22.369Z,34.40
2023-05-12T12:30:50.896Z,33.80
2023-05-12T12:33:20.711Z,33.80
2023-05-12T12:35:50.817Z,34.50
2023-05-12T12:38:19.308Z,34.40
2023-05-12T12:40:47.797Z,33.80
2023-05-12T12:43:16.498Z,34.30
2023-05-12T12:45:45.864Z,34.90
2023-05-12T12:48:14.430Z,34.90
2023-05-12T12:50:43.094Z,35.50
2023-05-12T12:53:13.060Z,35.40
2023-05-12T12:55:41.758Z,35.30
2023-05-12T12:58:10.512Z,35.40
2023-05-12T13:00:39.160Z,34.80
2023-05-12T13:03:08.298Z,34.30
2023-05-12T13:05:36.900Z,33.50
2023-05-12T13:08:05.576Z,32.70
2023-05-12T13:10:36.071Z,32.70
2023-05-12T13:13:04.656Z,32.70
2023-05-12T13:15:33.415Z,32.90
2023-05-12T13:18:02.021Z,33.30
2023-05-12T13:20:30.775Z,32.90
2023-05-12T13:22:59.407Z,32.40
2023-05-12T13:25:27.977Z,32.30
2023-05-12T13:27:57.908Z,32.30
2023-05-12T13:30:26.507Z,32.10
2023-05-12T13:32:55.459Z,32.40
2023-05-12T13:35:24.038Z,31.90
2023-05-12T13:37:52.644Z,32.20
2023-05-12T13:40:21.183Z,32.10
2023-05-12T13:42:49.660Z,31.50
2023-05-12T13:45:20.275Z,31.40
2023-05-12T13:47:48.923Z,31.50
2023-05-12T13:50:17.490Z,31.70
2023-05-12T13:52:47.672Z,31.70
2023-05-12T13:55:20.763Z,31.60
2023-05-12T13:57:50.469Z,31.10
2023-05-12T14:00:21.199Z,30.60
2023-05-12T14:02:53.416Z,30.70
2023-05-12T14:05:22.284Z,30.90
2023-05-12T14:07:51.114Z,30.60
2023-05-12T14:10:19.997Z,30.40
2023-05-12T14:12:48.539Z,30.20
2023-05-12T14:15:24.108Z,29.80
2023-05-12T14:18:02.713Z,29.70
2023-05-12T14:20:31.323Z,29.40
2023-05-12T14:22:59.854Z,29.50
2023-05-12T14:25:30.909Z,29.60
2023-05-12T14:27:59.877Z,29.60
2023-05-12T14:30:28.561Z,29.30
2023-05-12T14:32:57.239Z,29.20
2023-05-12T14:35:28.744Z,28.90
2023-05-12T14:37:58.322Z,29.20
2023-05-12T14:40:27.458Z,28.90
2023-05-12T14:42:56.455Z,28.70
2023-05-12T14:45:26.739Z,28.60
2023-05-12T14:47:55.482Z,28.40
2023-05-12T14:50:24.642Z,28.10
2023-05-12T14:52:54.680Z,28.10
2023-05-12T14:55:23.705Z,28.10
2023-05-12T14:57:52.232Z,27.80
2023-05-12T15:00:21.430Z,27.70
2023-05-12T15:02:50.070Z,27.70
2023-05-12T15:05:18.789Z,27.50
2023-05-12T15:07:47.570Z,27.50
2023-05-12T15:10:17.528Z,27.40
2023-05-12T15:12:46.110Z,27.00
2023-05-12T15:15:14.635Z,27.00
2023-05-12T15:17:43.624Z,27.40
2023-05-12T15:20:12.905Z,27.40
2023-05-12T15:22:41.902Z,27.20
2023-05-12T15:25:11.710Z,26.80
2023-05-12T15:27:42.092Z,26.40
2023-05-12T15:30:12.186Z,26.40
2023-05-12T15:32:41.632Z,26.20
2023-05-12T15:35:10.753Z,26.30
2023-05-12T15:37:39.279Z,26.60
2023-05-12T15:40:09.350Z,26.70
2023-05-12T15:42:40.356Z,26.60
2023-05-12T15:45:10.100Z,26.50
2023-05-12T15:47:38.748Z,26.50
2023-05-12T15:50:08.705Z,26.40
2023-05-12T15:52:37.308Z,26.40
2023-05-12T15:55:06.368Z,26.40
2023-05-12T15:57:34.921Z,26.20
2023-05-12T16:00:05.830Z,25.80
2023-05-12T16:02:34.401Z,25.60
2023-05-12T16:05:03.036Z,25.50
2023-05-12T16:07:31.530Z,25.30
2023-05-12T16:10:00.733Z,25.30
2023-05-12T16:12:29.324Z,25.10
2023-05-12T16:14:57.863Z,25.10
2023-05-12T16:17:27.962Z,24.90
2023-05-12T16:19:57.125Z,24.80
2023-05-12T16:22:25.882Z,24.70
2023-05-12T16:24:55.798Z,24.60
2023-05-12T16:27:24.563Z,24.40
2023-05-12T16:29:53.711Z,24.20
2023-05-12T16:32:22.259Z,23.90
2023-05-12T16:34:52.248Z,23.60
2023-05-12T16:37:20.736Z,23.50
2023-05-12T16:39:49.177Z,23.40
2023-05-12T16:42:17.685Z,23.30
2023-05-12T16:44:46.163Z,23.10
2023-05-12T16:47:14.621Z,22.90
2023-05-12T16:49:43.272Z,22.70
2023-05-12T16:52:14.959Z,22.60
2023-05-12T16:54:43.605Z,22.30
2023-05-12T16:57:12.058Z,22.20
2023-05-12T16:59:40.561Z,22.10
2023-05-12T17:02:09.947Z,22.00
2023-05-12T17:04:38.745Z,22.10
2023-05-12T17:07:07.608Z,22.00
2023-05-12T17:09:37.798Z,21.90
2023-05-12T17:12:08.018Z,21.80
2023-05-12T17:14:36.528Z,21.60
2023-05-12T17:17:05.108Z,21.60
2023-05-12T17:19:34.640Z,21.50
2023-05-12T17:22:03.773Z,21.50
2023-05-12T17:24:33.761Z,21.50
2023-05-12T17:27:03.815Z,21.40
2023-05-12T17:29:33.036Z,21.30
2023-05-12T17:32:02.300Z,21.20
2023-05-12T17:34:30.805Z,21.00
2023-05-12T17:36:59.355Z,21.00
2023-05-12T17:39:27.875Z,21.00
2023-05-12T17:41:56.415Z,20.90
2023-05-12T17:44:26.386Z,20.80
2023-05-12T17:46:54.960Z,20.70
2023-05-12T17:49:23.506Z,20.70
2023-05-12T17:51:52.018Z,20.70
2023-05-12T17:54:21.417Z,20.70
2023-05-12T17:56:49.911Z,20.60
2023-05-12T17:59:18.389Z,20.60
2023-05-12T18:01:48.317Z,20.50
2023-05-12T18:04:16.819Z,20.40
2023-05-12T18:06:50.141Z,20.30
2023-05-12T18:09:20.018Z,20.30
2023-05-12T18:11:48.962Z,20.10
2023-05-12T18:14:18.136Z,20.00
2023-05-12T18:16:48.846Z,19.90
2023-05-12T18:19:17.620Z,19.80
2023-05-12T18:21:46.788Z,19.80
2023-05-12T18:24:15.439Z,19.70
2023-05-12T18:26:44.801Z,19.60
2023-05-12T18:29:13.863Z,19.60
2023-05-12T18:31:44.315Z,19.50
2023-05-12T18:34:14.469Z,19.30
2023-05-12T18:36:43.125Z,19.30
2023-05-12T18:39:13.644Z,19.30
2023-05-12T18:41:43.117Z,19.30
2023-05-12T18:44:11.845Z,19.30
2023-05-12T18:46:40.536Z,19.20
2023-05-12T18:49:09.333Z,19.10
2023-05-12T18:51:39.465Z,19.00
2023-05-12T18:54:08.016Z,19.00
2023-05-12T18:56:37.365Z,18.90
2023-05-12T18:59:06.177Z,18.70
2023-05-12T19:01:35.192Z,18.40
2023-05-12T19:04:04.095Z,18.30
2023-05-12T19:06:32.862Z,18.20
2023-05-12T19:09:03.367Z,18.20
2023-05-12T19:11:32.197Z,18.20
2023-05-12T19:14:01.162Z,18.10
2023-05-12T19:16:31.028Z,18.10
2023-05-12T19:19:01.229Z,18.00
2023-05-12T19:21:30.587Z,17.90
2023-05-12T19:23:59.462Z,17.90
2023-05-12T19:26:29.592Z,17.80
2023-05-12T19:28:58.286Z,17.80
2023-05-12T19:31:26.919Z,17.80
2023-05-12T19:33:55.511Z,17.60
2023-05-12T19:36:24.060Z,17.60
2023-05-12T19:38:52.744Z,17.50
2023-05-12T19:41:21.382Z,17.40
2023-05-12T19:43:51.477Z,17.30
2023-05-12T19:46:20.131Z,17.30
2023-05-12T19:48:49.046Z,17.20
2023-05-12T19:51:17.918Z,17.20
2023-05-12T19:53:46.708Z,17.20
2023-05-12T19:56:15.429Z,17.10
2023-05-12T19:58:44.798Z,17.00
2023-05-12T20:01:15.110Z,17.00
2023-05-12T20:03:44.811Z,16.90
2023-05-12T20:06:13.803Z,16.90
2023-05-12T20:08:42.891Z,16.80
2023-05-12T20:11:11.627Z,16.80
2023-05-12T20:13:40.178Z,16.80
2023-05-12T20:16:09.210Z,16.80
2023-05-12T20:18:39.429Z,16.80
2023-05-12T20:21:08.085Z,16.60
2023-05-12T20:23:36.629Z,16.70
2023-05-12T20:26:05.715Z,16.60
2023-05-12T20:28:34.364Z,16.50
2023-05-12T20:31:03.082Z,16.40
2023-05-12T20:33:32.568Z,16.30
2023-05-12T20:36:02.676Z,16.10
2023-05-12T20:38:31.137Z,15.90
2023-05-12T20:41:05.570Z,15.70
2023-05-12T20:43:34.190Z,15.80
2023-05-12T20:46:05.612Z,15.60
2023-05-12T20:48:34.575Z,15.60
2023-05-12T20:51:13.630Z,15.60
2023-05-12T20:53:42.515Z,15.60
2023-05-12T20:56:12.962Z,15.70
2023-05-12T20:58:41.930Z,15.60
2023-05-12T21:01:10.569Z,15.70
2023-05-12T21:03:39.218Z,15.80
2023-05-12T21:06:08.320Z,15.80
2023-05-12T21:08:38.278Z,15.70
2023-05-12T21:11:15.306Z,15.60
2023-05-12T21:13:44.436Z,15.60
2023-05-12T21:16:13.008Z,15.60
2023-05-12T21:18:41.898Z,15.70
2023-05-12T21:21:10.471Z,15.70
2023-05-12T21:23:40.697Z,15.60
2023-05-12T21:26:10.531Z,15.60
2023-05-12T21:28:39.104Z,15.40
2023-05-12T21:31:07.716Z,15.40
2023-05-12T21:33:36.236Z,15.40
2023-05-12T21:36:05.064Z,15.40
2023-05-12T21:38:33.642Z,15.40
2023-05-12T21:41:03.522Z,15.30
2023-05-12T21:43:31.988Z,15.10
2023-05-12T21:46:04.227Z,15.10
2023-05-12T21:48:33.468Z,15.00
2023-05-12T21:51:02.972Z,14.90
2023-05-12T21:53:31.859Z,15.00
2023-05-12T21:56:00.296Z,15.00
2023-05-12T21:58:31.118Z,15.10
2023-05-12T22:01:00.063Z,15.10
2023-05-12T22:03:28.668Z,15.00
2023-05-12T22:05:58.372Z,15.10
2023-05-12T22:08:27.178Z,15.00
2023-05-12T22:10:55.656Z,15.00
2023-05-12T22:13:24.268Z,14.90
2023-05-12T22:15:54.727Z,14.80
2023-05-12T22:18:23.451Z,14.90
2023-05-12T22:20:52.159Z,14.90
2023-05-12T22:23:20.671Z,14.80
2023-05-12T22:25:49.113Z,14.70
2023-05-12T22:28:18.201Z,14.70
2023-05-12T22:30:46.750Z,14.60
2023-05-12T22:33:16.688Z,14.60
2023-05-12T22:35:45.424Z,14.70
2023-05-12T22:38:14.000Z,14.70
2023-05-12T22:40:43.061Z,14.50
2023-05-12T22:43:12.810Z,14.50
2023-05-12T22:45:41.795Z,14.40
2023-05-12T22:48:10.379Z,14.30
2023-05-12T22:50:40.338Z,14.20
2023-05-12T22:53:08.814Z,14.20
2023-05-12T22:55:37.312Z,14.10
2023-05-12T22:58:05.797Z,14.10
2023-05-12T23:00:34.626Z,13.90
2023-05-12T23:03:03.537Z,13.90
2023-05-12T23:05:32.146Z,13.90
2023-05-12T23:08:03.086Z,13.80
2023-05-12T23:10:31.557Z,13.70
2023-05-12T23:13:00.164Z,13.80
2023-05-12T23:15:28.972Z,13.80
2023-05-12T23:17:57.449Z,13.90
2023-05-12T23:20:26.007Z,13.80
2023-05-12T23:22:54.578Z,13.80
2023-05-12T23:25:24.790Z,13.70
2023-05-12T23:27:53.306Z,13.70
2023-05-12T23:30:22.725Z,13.60
2023-05-12T23:32:51.453Z,13.60
2023-05-12T23:35:20.144Z,13.50
2023-05-12T23:37:48.732Z,13.60
2023-05-12T23:40:17.207Z,13.60
2023-05-12T23:42:47.191Z,13.60
2023-05-12T23:45:16.123Z,13.60
2023-05-12T23:47:45.118Z,13.50
2023-05-12T23:50:13.683Z,13.40
2023-05-12T23:52:42.325Z,13.40
2023-05-12T23:55:11.784Z,13.40
2023-05-12T23:57:40.319Z,13.50
